Time;durP1;ratioP1;P1;durP2;ratioP2;P2;SDS_P1;SDS_P2;PMS_P1;PMS_P2;Temp;Humidity;BMP_temperature;BMP_pressure;BME280_temperature;BME280_humidity;BME280_pressure;Samples;Min_cycle;Max_cycle;Signal;HPM_P1;HPM_P2
2023/08/07 00:01:33;;;;;;;5.90;2.70;;;;;;;15.84;100.00;98863.20;180342;1259;57966;-64
2023/08/07 00:05:36;;;;;;;3.60;2.60;;;;;;;15.86;100.00;98872.70;180348;1259;46007;-65
2023/08/07 00:09:40;;;;;;;2.60;1.80;;;;;;;15.85;100.00;98876.79;180510;1259;43871;-65
2023/08/07 00:13:46;;;;;;;5.60;3.20;;;;;;;15.81;100.00;98879.76;180515;1259;43725;-65
2023/08/07 00:17:49;;;;;;;4.10;2.10;;;;;;;15.79;100.00;98882.95;180428;1259;43502;-66
2023/08/07 00:22:44;;;;;;;3.90;3.00;;;;;;;15.78;100.00;98884.86;180424;1260;58381;-65
2023/08/07 00:26:50;;;;;;;4.40;2.70;;;;;;;15.86;100.00;98883.30;180349;1259;46085;-66
2023/08/07 00:31:01;;;;;;;2.60;2.30;;;;;;;15.98;100.00;98880.16;180457;1260;45936;-66
2023/08/07 00:35:08;;;;;;;1.90;1.70;;;;;;;16.03;100.00;98885.89;180475;1259;44033;-67
2023/08/07 00:39:13;;;;;;;9.80;4.00;;;;;;;16.12;100.00;98895.84;180551;1258;43521;-67
2023/08/07 00:43:16;;;;;;;3.70;2.50;;;;;;;16.19;100.00;98900.07;180526;1260;58370;-66
2023/08/07 00:47:20;;;;;;;5.10;4.00;;;;;;;16.19;100.00;98897.79;180479;1259;45958;-65
2023/08/07 00:51:23;;;;;;;11.70;4.60;;;;;;;16.20;100.00;98903.61;180524;1259;43754;-66
2023/08/07 00:55:28;;;;;;;8.60;2.90;;;;;;;16.21;100.00;98906.60;180464;1258;45120;-66
2023/08/07 00:59:32;;;;;;;8.30;3.80;;;;;;;16.25;100.00;98909.52;180542;1260;43538;-66
2023/08/07 01:03:35;;;;;;;3.90;2.60;;;;;;;16.28;100.00;98908.54;180488;1259;58441;-66
2023/08/07 01:07:38;;;;;;;4.50;3.00;;;;;;;16.27;100.00;98906.55;180541;1260;43593;-65
2023/08/07 01:12:32;;;;;;;10.00;3.30;;;;;;;16.34;100.00;98903.92;180454;1259;43616;-65
2023/08/07 01:16:53;;;;;;;5.80;3.70;;;;;;;16.36;100.00;98903.96;180480;1262;45986;-66
2023/08/07 01:20:57;;;;;;;4.60;3.30;;;;;;;16.42;100.00;98900.08;180487;1260;43514;-65
2023/08/07 01:25:00;;;;;;;5.80;2.80;;;;;;;16.48;100.00;98899.61;180444;1259;58224;-65
2023/08/07 01:29:34;;;;;;;5.80;3.00;;;;;;;16.53;100.00;98899.23;180393;1260;44564;-65
2023/08/07 01:33:51;;;;;;;3.50;3.20;;;;;;;16.54;100.00;98893.16;180371;1259;43951;-64
2023/08/07 01:37:56;;;;;;;;;;;;;;;16.48;100.00;98892.79;180594;1260;45910;-64
2023/08/07 01:42:00;;;;;;;3.30;2.90;;;;;;;16.46;100.00;98894.48;180375;1259;44386;-64
2023/08/07 01:46:06;;;;;;;3.60;2.70;;;;;;;16.42;100.00;98897.19;180378;1262;58506;-64
2023/08/07 01:50:11;;;;;;;5.40;2.50;;;;;;;16.41;100.00;98899.38;180407;1260;43764;-64
2023/08/07 01:55:07;;;;;;;2.90;1.80;;;;;;;16.42;100.00;98896.20;180513;1261;44896;-64
2023/08/07 01:59:10;;;;;;;4.50;2.50;;;;;;;16.43;100.00;98892.94;180399;1259;45128;-64
2023/08/07 02:03:14;;;;;;;3.60;2.20;;;;;;;16.44;100.00;98887.98;180381;1260;44533;-63
2023/08/07 02:07:18;;;;;;;3.90;2.40;;;;;;;16.44;100.00;98880.10;180589;1260;58561;-63
2023/08/07 02:11:22;;;;;;;2.90;1.80;;;;;;;16.45;100.00;98878.80;180620;1257;44951;-64
2023/08/07 02:15:25;;;;;;;2.70;2.10;;;;;;;16.48;100.00;98883.49;180644;1258;43610;-64
2023/08/07 02:19:28;;;;;;;3.50;1.70;;;;;;;16.47;100.00;98882.79;180548;1259;43502;-64
2023/08/07 02:23:34;;;;;;;2.70;2.00;;;;;;;16.48;100.00;98889.13;180517;1257;46031;-64
2023/08/07 02:27:39;;;;;;;4.10;2.60;;;;;;;16.52;100.00;98885.30;180479;1257;57492;-64
2023/08/07 02:31:44;;;;;;;5.20;2.30;;;;;;;16.55;100.00;98885.61;180460;1259;44615;-64
2023/08/07 02:35:51;;;;;;;11.30;3.90;;;;;;;16.59;100.00;98889.80;180457;1257;43777;-65
2023/08/07 02:39:56;;;;;;;5.00;2.00;;;;;;;16.64;100.00;98888.13;180568;1257;45037;-65
2023/08/07 02:44:03;;;;;;;6.60;2.50;;;;;;;16.67;100.00;98884.98;180459;1257;44898;-65
2023/08/07 02:48:07;;;;;;;1.90;1.50;;;;;;;16.72;100.00;98886.17;180466;1257;57292;-65
2023/08/07 02:52:11;;;;;;;2.60;1.80;;;;;;;16.76;100.00;98890.66;180593;1257;44485;-64
2023/08/07 02:56:15;;;;;;;7.50;4.10;;;;;;;16.89;100.00;98890.98;180443;1257;43581;-65
2023/08/07 03:00:18;;;;;;;6.10;3.20;;;;;;;16.88;100.00;98887.34;180507;1257;43518;-64
2023/08/07 03:04:24;;;;;;;3.20;2.10;;;;;;;16.82;100.00;98880.77;180509;1257;43804;-65
2023/08/07 03:08:28;;;;;;;10.60;2.70;;;;;;;16.75;100.00;98886.80;180498;1257;58452;-65
2023/08/07 03:12:32;;;;;;;2.30;1.80;;;;;;;16.75;100.00;98886.14;180502;1257;44933;-65
2023/08/07 03:16:40;;;;;;;6.60;2.40;;;;;;;16.73;100.00;98887.01;180518;1257;45171;-62
2023/08/07 03:20:44;;;;;;;3.10;1.70;;;;;;;16.67;100.00;98887.35;180400;1257;45925;-61
2023/08/07 03:24:48;;;;;;;7.00;2.20;;;;;;;16.37;100.00;98904.55;180326;1257;45601;-62
2023/08/07 03:28:52;;;;;;;2.70;1.80;;;;;;;16.08;100.00;98909.18;180319;1257;58357;-62
2023/08/07 03:32:55;;;;;;;3.80;2.50;;;;;;;16.04;100.00;98912.17;180394;1257;45605;-62
2023/08/07 03:37:03;;;;;;;2.20;2.00;;;;;;;16.03;100.00;98913.32;180553;1257;44938;-62
2023/08/07 03:41:08;;;;;;;2.20;1.60;;;;;;;16.03;100.00;98913.70;180555;1259;44749;-62
2023/08/07 03:45:12;;;;;;;2.40;1.70;;;;;;;16.02;100.00;98915.34;180644;1257;44693;-62
2023/08/07 03:49:15;;;;;;;2.00;1.70;;;;;;;16.02;100.00;98923.17;180561;1257;57428;-62
2023/08/07 03:53:18;;;;;;;2.90;2.20;;;;;;;16.02;100.00;98926.52;180513;1259;45209;-62
2023/08/07 03:57:24;;;;;;;2.20;1.60;;;;;;;16.07;100.00;98928.38;180662;1259;44712;-62
2023/08/07 04:01:28;;;;;;;2.80;2.10;;;;;;;16.20;100.00;98926.11;180539;1257;45906;-62
2023/08/07 04:05:33;;;;;;;3.00;1.70;;;;;;;16.25;100.00;98927.95;180616;1258;44577;-61
2023/08/07 04:10:28;;;;;;;4.20;1.50;;;;;;;16.15;100.00;98938.17;180631;1257;58735;-62
2023/08/07 04:14:32;;;;;;;3.90;1.70;;;;;;;16.10;100.00;98944.41;180651;1256;46025;-61
2023/08/07 04:18:48;;;;;;;5.20;2.20;;;;;;;16.07;100.00;98949.98;180619;1257;43734;-62
2023/08/07 04:22:51;;;;;;;3.70;1.80;;;;;;;15.89;100.00;98961.63;180594;1257;46057;-62
2023/08/07 04:26:56;;;;;;;2.00;1.70;;;;;;;15.87;100.00;98962.93;180711;1257;43766;-62
2023/08/07 04:31:27;;;;;;;1.30;1.10;;;;;;;15.79;100.00;98964.80;180573;1257;58724;-62
2023/08/07 04:35:31;;;;;;;1.80;1.40;;;;;;;15.63;100.00;98967.85;180653;1257;46011;-62
2023/08/07 04:39:35;;;;;;;3.70;2.00;;;;;;;15.58;100.00;98969.34;180740;1257;46036;-59
2023/08/07 04:43:41;;;;;;;2.20;1.30;;;;;;;15.67;100.00;98969.79;180689;1259;45877;-62
2023/08/07 04:47:47;;;;;;;1.60;1.40;;;;;;;15.76;100.00;98970.17;180626;1256;45967;-62
2023/08/07 04:51:52;;;;;;;2.10;1.20;;;;;;;15.81;100.00;98975.98;180485;1257;58393;-61
2023/08/07 04:55:57;;;;;;;1.20;1.10;;;;;;;15.83;100.00;98978.31;180499;1257;44589;-62
2023/08/07 05:00:00;;;;;;;1.90;1.70;;;;;;;15.88;100.00;98982.95;180510;1257;43537;-62
2023/08/07 05:04:08;;;;;;;1.10;0.70;;;;;;;15.93;100.00;98983.34;180482;1257;44655;-62
2023/08/07 05:08:13;;;;;;;1.00;0.90;;;;;;;15.98;100.00;98988.01;180242;1257;213486;-62
2023/08/07 05:12:17;;;;;;;11.30;1.60;;;;;;;15.96;100.00;98991.00;180526;1256;58478;-62
2023/08/07 05:16:52;;;;;;;3.90;1.50;;;;;;;15.94;100.00;98989.76;180658;1257;45897;-62
2023/08/07 05:20:57;;;;;;;1.60;1.40;;;;;;;15.95;100.00;98985.85;180646;1257;45858;-63
2023/08/07 05:25:01;;;;;;;2.10;1.90;;;;;;;15.97;100.00;98986.48;180332;1257;43664;-62
2023/08/07 05:29:04;;;;;;;3.50;2.60;;;;;;;16.05;100.00;98991.58;180353;1257;43546;-63
2023/08/07 05:33:07;;;;;;;2.10;1.50;;;;;;;16.09;100.00;98997.34;180401;1257;58741;-63
2023/08/07 05:37:10;;;;;;;3.10;2.30;;;;;;;16.14;100.00;99004.94;180305;1257;43966;-63
2023/08/07 05:41:14;;;;;;;5.20;3.20;;;;;;;16.21;100.00;99010.15;180487;1257;45011;-63
2023/08/07 05:45:25;;;;;;;10.40;6.70;;;;;;;16.29;100.00;99014.52;180362;1256;46089;-64
2023/08/07 05:49:29;;;;;;;12.10;6.50;;;;;;;16.36;100.00;99016.38;180437;1257;45918;-63
2023/08/07 05:53:36;;;;;;;4.20;3.20;;;;;;;16.39;100.00;99019.25;180504;1257;57777;-64
2023/08/07 05:57:42;;;;;;;3.60;1.90;;;;;;;16.43;100.00;99018.73;180446;1257;43633;-64
2023/08/07 06:01:45;;;;;;;4.20;2.00;;;;;;;16.52;100.00;99018.47;180271;1257;46047;-64
2023/08/07 06:05:50;;;;;;;2.10;1.70;;;;;;;16.61;100.00;99020.35;180335;1257;45971;-64
2023/08/07 06:09:59;;;;;;;2.80;2.30;;;;;;;16.70;100.00;99024.10;180438;1257;46048;-64
2023/08/07 06:14:02;;;;;;;4.70;2.40;;;;;;;16.77;100.00;99026.48;180443;1256;60102;-64
2023/08/07 06:18:05;;;;;;;2.10;1.80;;;;;;;16.85;100.00;99032.48;180342;1257;43779;-65
2023/08/07 06:22:11;;;;;;;2.20;1.90;;;;;;;16.97;100.00;99035.86;180472;1257;44685;-64
2023/08/07 06:26:15;;;;;;;2.00;1.80;;;;;;;17.20;100.00;99035.66;180281;1257;46159;-65
2023/08/07 06:30:18;;;;;;;4.60;2.90;;;;;;;17.39;100.00;99038.39;180389;1257;45568;-65
2023/08/07 06:34:21;;;;;;;3.20;2.80;;;;;;;17.63;100.00;99042.76;180346;1256;58685;-64
2023/08/07 06:38:25;;;;;;;2.80;2.00;;;;;;;17.78;100.00;99044.54;180204;1257;46108;-64
2023/08/07 06:42:29;;;;;;;3.00;2.00;;;;;;;17.89;100.00;99047.25;180437;1257;45987;-65
2023/08/07 06:46:32;;;;;;;8.70;2.50;;;;;;;17.90;100.00;99052.05;180387;1256;44722;-65
2023/08/07 06:50:41;;;;;;;6.50;2.90;;;;;;;17.86;100.00;99051.98;180328;1257;44651;-63
2023/08/07 06:54:44;;;;;;;5.40;2.60;;;;;;;17.89;100.00;99052.51;180248;1257;58422;-64
2023/08/07 06:58:48;;;;;;;3.50;2.80;;;;;;;18.02;100.00;99060.25;180424;1257;45863;-64
2023/08/07 07:02:54;;;;;;;2.90;2.30;;;;;;;18.19;100.00;99068.81;180743;1257;43760;-64
2023/08/07 07:06:58;;;;;;;3.20;2.60;;;;;;;18.30;100.00;99073.98;180808;1257;45986;-63
2023/08/07 07:11:04;;;;;;;3.90;2.50;;;;;;;18.40;100.00;99073.88;180604;1257;44663;-64
2023/08/07 07:15:08;;;;;;;2.40;2.20;;;;;;;18.76;100.00;99073.23;180315;1257;58437;-64
2023/08/07 07:19:12;;;;;;;3.30;2.60;;;;;;;19.07;100.00;99071.74;180415;1257;43944;-63
2023/08/07 07:23:16;;;;;;;4.10;2.40;;;;;;;19.12;100.00;99075.48;180309;1257;45042;-62
2023/08/07 07:27:19;;;;;;;2.50;1.80;;;;;;;18.78;100.00;99071.23;180277;1257;43754;-63
2023/08/07 07:31:27;;;;;;;3.00;2.50;;;;;;;18.29;100.00;99081.06;180316;1257;45870;-63
2023/08/07 07:35:39;;;;;;;3.40;2.80;;;;;;;18.33;100.00;99080.75;180362;1257;58605;-63
2023/08/07 07:39:44;;;;;;;4.40;2.90;;;;;;;18.33;100.00;99088.08;180286;1257;46031;-62
2023/08/07 07:43:47;;;;;;;7.30;3.50;;;;;;;18.52;100.00;99092.88;180546;1255;44946;-63
2023/08/07 07:48:08;;;;;;;;;;;;;;;18.63;100.00;99098.73;180387;1257;43738;-62
2023/08/07 07:52:11;;;;;;;7.70;3.80;;;;;;;18.52;100.00;99109.16;180629;1256;43259;-63
2023/08/07 07:56:17;;;;;;;4.20;2.30;;;;;;;18.34;100.00;99110.39;180400;1256;58036;-63
2023/08/07 08:00:26;;;;;;;5.40;2.70;;;;;;;18.08;100.00;99113.87;180318;1257;44580;-63
2023/08/07 08:04:31;;;;;;;5.80;2.40;;;;;;;18.06;100.00;99116.27;180387;1257;44715;-63
2023/08/07 08:08:37;;;;;;;11.00;3.90;;;;;;;18.05;100.00;99110.34;180389;1256;46025;-63
2023/08/07 08:12:40;;;;;;;3.10;2.80;;;;;;;18.30;100.00;99114.49;180325;1257;45968;-63
2023/08/07 08:16:46;;;;;;;6.60;3.50;;;;;;;18.66;100.00;99116.58;180746;1258;58477;-63
2023/08/07 08:20:49;;;;;;;4.00;2.90;;;;;;;18.75;100.00;99120.27;180676;1257;43517;-63
2023/08/07 08:25:45;;;;;;;6.60;3.30;;;;;;;19.04;100.00;99119.18;180501;1257;45061;-63
2023/08/07 08:29:48;;;;;;;4.10;3.10;;;;;;;19.31;100.00;99122.06;180335;1257;45187;-64
2023/08/07 08:33:52;;;;;;;7.90;3.10;;;;;;;19.14;100.00;99126.35;180497;1257;43568;-63
2023/08/07 08:37:56;;;;;;;6.00;3.50;;;;;;;19.03;100.00;99126.68;180454;1257;59317;-63
2023/08/07 08:41:59;;;;;;;3.40;2.10;;;;;;;19.15;100.00;99129.06;180407;1257;43718;-64
2023/08/07 08:46:05;;;;;;;3.60;2.60;;;;;;;19.42;100.00;99127.34;180631;1256;45995;-64
2023/08/07 08:50:14;;;;;;;4.90;2.40;;;;;;;19.58;99.37;99141.06;180442;1256;45943;-64
2023/08/07 08:58:44;;;;;;;5.00;3.00;;;;;;;19.13;94.51;99150.64;181606;1258;59379;-90
2023/08/07 09:16:48;;;;;;;2.80;2.20;;;;;;;19.54;97.07;99169.30;178349;1259;43400;-64
2023/08/07 09:20:52;;;;;;;6.00;2.50;;;;;;;19.52;91.72;99170.95;181527;1258;58902;-65
2023/08/07 09:24:56;;;;;;;4.10;2.20;;;;;;;19.48;94.75;99174.91;181593;1260;43825;-64
2023/08/07 09:28:59;;;;;;;4.40;2.30;;;;;;;19.22;93.88;99170.52;181472;1260;43790;-64
2023/08/07 09:33:03;;;;;;;8.90;2.50;;;;;;;19.02;98.22;99179.75;181520;1260;43853;-64
2023/08/07 09:37:08;;;;;;;2.90;1.90;;;;;;;19.21;94.69;99186.12;181402;1260;43020;-64
2023/08/07 09:41:12;;;;;;;4.00;2.10;;;;;;;19.37;91.36;99184.98;181722;1259;59147;-63
2023/08/07 09:45:34;;;;;;;2.10;1.60;;;;;;;19.74;88.27;99178.34;181635;1259;43754;-63
2023/08/07 09:49:41;;;;;;;2.70;2.10;;;;;;;19.80;85.89;99186.23;181645;1259;43586;-64
2023/08/07 09:53:47;;;;;;;3.30;1.90;;;;;;;20.05;88.66;99176.48;181498;1259;43110;-64
2023/08/07 09:57:51;;;;;;;2.90;2.60;;;;;;;20.14;86.05;99180.61;181509;1260;43072;-63
2023/08/07 10:01:55;;;;;;;2.60;2.00;;;;;;;20.26;87.13;99174.81;181578;1259;58204;-63
2023/08/07 10:05:59;;;;;;;2.70;1.70;;;;;;;20.49;88.19;99176.13;181495;1259;43385;-64
2023/08/07 10:10:04;;;;;;;3.90;1.80;;;;;;;20.46;85.13;99182.17;181574;1259;43074;-64
2023/08/07 10:14:13;;;;;;;2.30;1.60;;;;;;;20.45;85.04;99184.64;181465;1261;43939;-65
2023/08/07 10:18:16;;;;;;;2.40;1.80;;;;;;;20.74;85.97;99190.96;181582;1259;42977;-63
2023/08/07 10:22:20;;;;;;;7.70;2.00;;;;;;;20.50;84.74;99181.73;181506;1259;59163;-64
2023/08/07 10:26:24;;;;;;;3.20;2.00;;;;;;;20.50;87.84;99185.56;181457;1259;43927;-64
2023/08/07 10:30:29;;;;;;;6.60;2.00;;;;;;;20.24;87.81;99196.50;181529;1260;44076;-64
2023/08/07 10:34:51;;;;;;;2.50;1.50;;;;;;;19.82;87.65;99197.26;181424;1260;43568;-63
2023/08/07 10:39:07;;;;;;;4.30;2.40;;;;;;;20.03;91.96;99191.52;181517;1260;42999;-64
2023/08/07 10:43:17;;;;;;;3.10;2.10;;;;;;;20.32;91.29;99182.35;181499;1260;60073;-63
2023/08/07 10:47:56;;;;;;;2.60;2.40;;;;;;;20.35;90.28;99179.50;181590;1259;43612;-63
2023/08/07 10:52:03;;;;;;;4.20;1.90;;;;;;;20.53;89.42;99180.59;181445;1259;43067;-65
2023/08/07 11:01:22;;;;;;;1.80;1.40;;;;;;;21.17;85.09;99190.29;181444;1260;43717;-64
2023/08/07 11:05:25;;;;;;;3.50;1.70;;;;;;;21.33;83.99;99194.89;181551;1259;59630;-63
2023/08/07 11:09:33;;;;;;;3.60;2.70;;;;;;;21.35;80.64;99182.63;181569;1259;43786;-64
2023/08/07 11:13:36;;;;;;;6.80;2.30;;;;;;;21.08;79.69;99181.31;181577;1259;43811;-64
2023/08/07 11:17:41;;;;;;;1.40;1.20;;;;;;;20.63;80.71;99183.84;181335;1261;43989;-64
2023/08/07 11:21:44;;;;;;;1.90;1.70;;;;;;;20.06;86.82;99190.31;181416;1261;43796;-66
2023/08/07 11:25:49;;;;;;;4.10;1.80;;;;;;;19.26;99.80;99221.17;181472;1260;58496;-66
2023/08/07 11:29:53;;;;;;;4.60;2.60;;;;;;;18.22;100.00;99242.77;181372;1262;43728;-64
2023/08/07 11:33:58;;;;;;;3.20;1.90;;;;;;;17.67;100.00;99245.73;181391;1261;43158;-63
2023/08/07 11:38:01;;;;;;;2.00;1.80;;;;;;;17.17;100.00;99256.14;181345;1261;43683;-64
2023/08/07 11:42:06;;;;;;;1.80;1.70;;;;;;;17.12;100.00;99259.23;181424;1261;43631;-63
2023/08/07 11:46:10;;;;;;;2.90;2.30;;;;;;;17.25;100.00;99263.18;181355;1261;58330;-64
2023/08/07 11:50:14;;;;;;;6.00;2.50;;;;;;;17.59;100.00;99250.06;181396;1261;43205;-63
2023/08/07 11:54:20;;;;;;;5.50;2.70;;;;;;;18.20;100.00;99241.99;181287;1260;43402;-64
2023/08/07 11:58:25;;;;;;;3.40;3.00;;;;;;;18.61;100.00;99235.81;181453;1262;43680;-64
2023/08/07 12:02:28;;;;;;;4.30;3.40;;;;;;;18.75;100.00;99231.32;181438;1260;43626;-64
2023/08/07 12:06:33;;;;;;;2.30;2.00;;;;;;;18.93;100.00;99230.39;181395;1261;58359;-64
2023/08/07 12:10:36;;;;;;;4.20;2.40;;;;;;;18.95;100.00;99243.09;181354;1260;43109;-64
2023/08/07 12:14:41;;;;;;;4.80;2.80;;;;;;;19.12;100.00;99249.65;181413;1261;43702;-64
2023/08/07 12:18:46;;;;;;;2.70;2.30;;;;;;;18.89;100.00;99256.34;181602;1260;43733;-65
2023/08/07 12:22:49;;;;;;;3.20;2.80;;;;;;;18.78;100.00;99264.73;181429;1260;43813;-64
2023/08/07 12:26:52;;;;;;;3.50;2.20;;;;;;;18.93;100.00;99279.36;181495;1260;58321;-65
2023/08/07 12:30:56;;;;;;;3.40;2.10;;;;;;;18.95;100.00;99290.43;181408;1260;43140;-63
2023/08/07 12:35:01;;;;;;;3.00;1.60;;;;;;;18.59;100.00;99293.23;181449;1260;43084;-64
2023/08/07 12:39:07;;;;;;;2.80;2.20;;;;;;;18.02;100.00;99291.25;181561;1260;43268;-65
2023/08/07 12:43:10;;;;;;;3.30;1.50;;;;;;;17.84;100.00;99292.92;181408;1260;42990;-66
2023/08/07 12:47:14;;;;;;;2.90;2.10;;;;;;;17.92;100.00;99285.81;181504;1260;58188;-67
2023/08/07 12:51:17;;;;;;;2.60;2.00;;;;;;;18.39;100.00;99272.54;181409;1262;43100;-62
2023/08/07 12:55:23;;;;;;;2.90;2.00;;;;;;;19.04;100.00;99270.99;181352;1261;43491;-65
2023/08/07 12:59:26;;;;;;;3.10;2.20;;;;;;;19.63;100.00;99278.16;181498;1260;43660;-65
2023/08/07 13:03:29;;;;;;;3.40;2.20;;;;;;;19.95;100.00;99279.14;181439;1260;43713;-66
2023/08/07 13:07:32;;;;;;;2.40;1.40;;;;;;;20.34;100.00;99281.37;181397;1261;58054;-64
2023/08/07 13:11:36;;;;;;;1.80;1.30;;;;;;;20.78;99.96;99271.95;181455;1260;43018;-67
2023/08/07 13:15:39;;;;;;;1.00;0.80;;;;;;;21.20;97.84;99269.14;181499;1260;43702;-67
2023/08/07 13:19:42;;;;;;;2.50;1.30;;;;;;;21.29;90.38;99263.13;181383;1260;43669;-66
2023/08/07 13:23:45;;;;;;;4.10;1.20;;;;;;;21.12;89.87;99273.73;181372;1262;43086;-66
2023/08/07 13:27:54;;;;;;;2.60;1.20;;;;;;;20.84;91.20;99279.66;181332;1259;59311;-66
2023/08/07 13:31:57;;;;;;;1.60;0.60;;;;;;;20.32;92.71;99292.22;181310;1260;43233;-65
2023/08/07 13:41:21;;;;;;;1.00;0.70;;;;;;;19.41;100.00;99313.36;181445;1260;43153;-66
2023/08/07 13:45:24;;;;;;;5.80;2.60;;;;;;;19.43;100.00;99306.11;181418;1260;42999;-68
2023/08/07 13:49:27;;;;;;;3.60;1.90;;;;;;;19.81;100.00;99301.29;181442;1259;57681;-68
2023/08/07 13:53:30;;;;;;;2.50;1.30;;;;;;;20.26;100.00;99306.45;181338;1260;43008;-65
2023/08/07 13:57:34;;;;;;;1.50;0.70;;;;;;;20.56;99.86;99303.83;181372;1260;43141;-62
2023/08/07 14:01:37;;;;;;;1.50;0.70;;;;;;;20.67;95.95;99302.85;181376;1261;43074;-62
2023/08/07 14:05:41;;;;;;;0.70;0.60;;;;;;;20.77;93.06;99306.17;181453;1260;43040;-63
2023/08/07 14:09:44;;;;;;;2.20;0.80;;;;;;;20.77;92.19;99303.30;181419;1260;58204;-64
2023/08/07 14:13:48;;;;;;;1.50;0.60;;;;;;;20.81;92.68;99310.86;181399;1261;43134;-64
2023/08/07 14:17:52;;;;;;;1.30;0.60;;;;;;;20.77;92.32;99321.34;181430;1260;44028;-65
2023/08/07 14:21:55;;;;;;;3.80;1.20;;;;;;;20.62;91.56;99319.91;181482;1260;43167;-63
2023/08/07 14:25:58;;;;;;;0.50;0.30;;;;;;;20.63;91.96;99326.86;181300;1262;43928;-64
2023/08/07 14:30:30;;;;;;;0.60;0.50;;;;;;;20.64;90.02;99320.42;181436;1261;59968;-64
2023/08/07 14:34:34;;;;;;;0.80;0.50;;;;;;;20.70;90.18;99323.16;181385;1260;43965;-64
2023/08/07 14:38:37;;;;;;;1.40;0.60;;;;;;;20.75;91.09;99328.79;181424;1260;43461;-62
2023/08/07 14:53:05;;;;;;;3.10;0.70;;;;;;;20.78;88.30;99313.80;181118;1259;60922;-88
2023/08/07 14:57:09;;;;;;;1.40;0.80;;;;;;;20.79;89.29;99321.64;181169;1259;44072;-88
2023/08/07 15:01:13;;;;;;;0.80;0.50;;;;;;;20.91;91.42;99325.29;181124;1259;44134;-88
2023/08/07 15:05:16;;;;;;;1.10;0.40;;;;;;;21.03;89.23;99314.27;181050;1259;43821;-88
2023/08/07 15:09:20;;;;;;;0.20;0.20;;;;;;;21.11;87.42;99311.34;181007;1260;44041;-88
2023/08/07 15:13:24;;;;;;;1.20;0.50;;;;;;;21.15;85.90;99313.11;181074;1259;57889;-88
2023/08/07 15:17:28;;;;;;;1.20;0.50;;;;;;;21.19;86.06;99312.20;181097;1259;43716;-87
2023/08/07 15:21:31;;;;;;;1.70;0.50;;;;;;;21.29;86.44;99314.04;181159;1259;43942;-87
2023/08/07 15:25:37;;;;;;;0.90;0.60;;;;;;;21.33;86.51;99317.26;180989;1259;44019;-87
2023/08/07 15:29:44;;;;;;;2.40;0.30;;;;;;;21.43;86.86;99323.04;181161;1259;43935;-87
2023/08/07 15:33:50;;;;;;;1.30;1.10;;;;;;;21.40;85.50;99321.65;180985;1259;57913;-87
2023/08/07 15:37:54;;;;;;;2.40;0.60;;;;;;;21.18;85.03;99327.89;180980;1259;44311;-87
2023/08/07 15:41:57;;;;;;;1.20;0.70;;;;;;;20.93;83.99;99324.58;181085;1259;44080;-87
2023/08/07 15:46:01;;;;;;;0.50;0.30;;;;;;;20.70;84.32;99321.38;180974;1261;44131;-86
2023/08/07 15:50:05;;;;;;;0.20;0.20;;;;;;;20.42;85.12;99333.61;180925;1259;44218;-87
2023/08/07 15:54:09;;;;;;;5.50;0.60;;;;;;;20.05;88.33;99344.23;180954;1259;57916;-87
2023/08/07 15:58:13;;;;;;;1.60;0.30;;;;;;;19.80;92.26;99357.66;180966;1259;44048;-87
2023/08/07 16:02:16;;;;;;;0.70;0.50;;;;;;;19.07;97.77;99377.39;181125;1259;44044;-88
2023/08/07 16:06:21;;;;;;;0.70;0.40;;;;;;;18.78;100.00;99389.69;180963;1260;43867;-88
2023/08/07 16:10:26;;;;;;;1.00;0.50;;;;;;;18.79;100.00;99377.42;181115;1259;43793;-88
2023/08/07 16:14:29;;;;;;;1.90;1.10;;;;;;;18.99;100.00;99388.52;181118;1260;58046;-88
2023/08/07 16:18:37;;;;;;;1.00;0.40;;;;;;;19.15;100.00;99393.09;181023;1259;43875;-88
2023/08/07 16:22:43;;;;;;;0.90;0.50;;;;;;;19.19;99.79;99381.54;181082;1259;43728;-88
2023/08/07 16:26:47;;;;;;;1.70;0.60;;;;;;;19.27;99.66;99397.89;181159;1259;43839;-88
2023/08/07 16:30:50;;;;;;;0.80;0.40;;;;;;;19.30;98.63;99404.56;181137;1259;43832;-88
2023/08/07 16:34:54;;;;;;;2.50;0.70;;;;;;;19.21;98.86;99405.67;181018;1259;59412;-88
2023/08/07 16:38:57;;;;;;;0.50;0.40;;;;;;;19.12;98.02;99420.25;181033;1259;44077;-87
2023/08/07 16:43:05;;;;;;;0.20;0.10;;;;;;;19.11;98.60;99420.50;181074;1259;43766;-88
2023/08/07 16:47:08;;;;;;;2.40;0.50;;;;;;;19.07;99.70;99425.34;181043;1259;43924;-88
2023/08/07 16:51:13;;;;;;;1.30;0.50;;;;;;;19.02;99.81;99430.29;181215;1259;44104;-88
2023/08/07 16:55:18;;;;;;;0.90;0.40;;;;;;;18.95;99.76;99429.95;181036;1259;58296;-88
2023/08/07 16:59:23;;;;;;;1.00;0.60;;;;;;;18.91;100.00;99436.89;181030;1259;43702;-88
2023/08/07 17:03:26;;;;;;;0.50;0.20;;;;;;;18.92;100.00;99442.33;181058;1259;44510;-88
2023/08/07 17:07:30;;;;;;;3.10;0.50;;;;;;;18.86;100.00;99438.50;180863;1263;232350;-87
2023/08/07 17:11:34;;;;;;;0.50;0.30;;;;;;;18.85;100.00;99441.23;181154;1259;43887;-89
2023/08/07 17:15:37;;;;;;;0.30;0.30;;;;;;;18.82;100.00;99443.16;181025;1259;59555;-89
2023/08/07 17:19:41;;;;;;;0.50;0.20;;;;;;;18.77;100.00;99443.97;181067;1259;43990;-89
2023/08/07 17:23:44;;;;;;;2.30;0.70;;;;;;;18.73;100.00;99447.31;181080;1259;44175;-88
2023/08/07 17:27:48;;;;;;;0.50;0.40;;;;;;;18.74;100.00;99447.80;181031;1260;44153;-88
2023/08/07 17:31:53;;;;;;;2.60;0.60;;;;;;;18.76;100.00;99453.58;181003;1259;43717;-88
2023/08/07 17:35:57;;;;;;;1.90;0.40;;;;;;;18.74;100.00;99455.98;181129;1259;58086;-88
2023/08/07 17:40:00;;;;;;;0.70;0.40;;;;;;;18.65;100.00;99456.31;180972;1259;43808;-89
2023/08/07 17:44:04;;;;;;;1.00;0.60;;;;;;;18.54;100.00;99463.90;181067;1259;43860;-88
2023/08/07 17:48:07;;;;;;;3.20;0.80;;;;;;;18.48;100.00;99472.61;181077;1259;44157;-88
2023/08/07 17:52:12;;;;;;;0.60;0.20;;;;;;;18.42;100.00;99479.86;181139;1259;43965;-88
2023/08/07 17:56:15;;;;;;;0.70;0.60;;;;;;;18.30;100.00;99480.83;181056;1259;56939;-88
2023/08/07 18:00:19;;;;;;;0.80;0.30;;;;;;;18.23;100.00;99482.89;181017;1260;44133;-89
2023/08/07 18:04:22;;;;;;;1.50;0.70;;;;;;;18.15;100.00;99487.38;181161;1259;44448;-88
2023/08/07 18:08:26;;;;;;;0.60;0.30;;;;;;;18.04;100.00;99498.92;181053;1259;44137;-88
2023/08/07 18:12:29;;;;;;;7.30;1.10;;;;;;;17.98;100.00;99503.48;181059;1259;44137;-88
2023/08/07 18:16:32;;;;;;;1.70;0.70;;;;;;;17.92;100.00;99509.06;181091;1259;59554;-88
2023/08/07 18:20:36;;;;;;;3.60;0.80;;;;;;;17.83;100.00;99512.69;181116;1259;43867;-88
2023/08/07 18:24:40;;;;;;;1.40;0.20;;;;;;;17.72;100.00;99524.10;181063;1259;44066;-89
2023/08/07 18:28:44;;;;;;;1.10;0.40;;;;;;;17.65;100.00;99524.60;181075;1259;44141;-89
2023/08/07 18:32:48;;;;;;;1.10;1.00;;;;;;;17.59;100.00;99527.48;181009;1259;43856;-89
2023/08/07 18:36:53;;;;;;;1.60;0.60;;;;;;;17.53;100.00;99532.33;181018;1259;60055;-88
2023/08/07 18:40:59;;;;;;;1.10;0.50;;;;;;;17.48;100.00;99534.23;180959;1259;44064;-87
2023/08/07 18:45:03;;;;;;;2.50;0.40;;;;;;;17.44;100.00;99533.05;181095;1259;43963;-87
2023/08/07 18:49:07;;;;;;;1.40;0.30;;;;;;;17.45;100.00;99536.67;180980;1259;44089;-88
2023/08/07 18:53:13;;;;;;;5.20;1.20;;;;;;;17.47;100.00;99545.58;180880;1262;45015;-87
2023/08/07 18:57:22;;;;;;;0.90;0.40;;;;;;;17.49;100.00;99552.02;181043;1259;59555;-87
2023/08/07 19:01:27;;;;;;;0.70;0.40;;;;;;;17.48;100.00;99554.86;181110;1261;44152;-88
2023/08/07 19:05:31;;;;;;;0.40;0.40;;;;;;;17.45;100.00;99560.34;181078;1259;43761;-87
2023/08/07 19:09:36;;;;;;;0.40;0.20;;;;;;;17.44;100.00;99563.58;181021;1259;44464;-87
2023/08/07 19:13:41;;;;;;;0.70;0.30;;;;;;;17.34;100.00;99569.81;181101;1260;44090;-87
2023/08/07 19:17:44;;;;;;;1.30;0.60;;;;;;;17.19;100.00;99584.42;181011;1260;58099;-87
2023/08/07 19:21:51;;;;;;;0.60;0.60;;;;;;;17.09;100.00;99581.47;181007;1264;43800;-88
2023/08/07 19:25:54;;;;;;;0.50;0.40;;;;;;;16.94;100.00;99583.70;181007;1260;44217;-87
2023/08/07 19:29:58;;;;;;;0.90;0.70;;;;;;;16.83;100.00;99588.71;180993;1260;44259;-88
2023/08/07 19:34:02;;;;;;;1.70;0.50;;;;;;;16.73;100.00;99593.70;180902;1261;43853;-88